Time;durP1;ratioP1;P1;durP2;ratioP2;P2;SDS_P1;SDS_P2;PMS_P1;PMS_P2;Temp;Humidity;BMP_temperature;BMP_pressure;BME280_temperature;BME280_humidity;BME280_pressure;Samples;Min_cycle;Max_cycle;Signal;HPM_P1;HPM_P2
2023/04/24 00:01:16;;;;;;;20.38;10.68;;;;;;;;;;6381617;22;20018;-76
2023/04/24 00:04:03;;;;;;;17.92;11.07;;;;;;;;;;6383258;22;20018;-76
2023/04/24 00:06:53;;;;;;;19.23;10.75;;;;;;;;;;6383519;22;20332;-79
2023/04/24 00:09:39;;;;;;;19.38;11.57;;;;;;;;;;6383397;22;20018;-77
2023/04/24 00:12:25;;;;;;;23.23;13.52;;;;;;;;;;6383577;22;20018;-77
2023/04/24 00:15:10;;;;;;;25.38;12.80;;;;;;;;;;6383420;22;20014;-77
2023/04/24 00:17:55;;;;;;;23.30;13.45;;;;;;;;;;6383646;22;20022;-77
2023/04/24 00:20:40;;;;;;;20.75;12.48;;;;;;;;;;6383208;22;20018;-76
2023/04/24 00:23:25;;;;;;;26.75;11.90;;;;;;;;;;6383293;22;20018;-77
2023/04/24 00:26:10;;;;;;;26.35;12.52;;;;;;;;;;6383426;22;20010;-77
2023/04/24 00:28:56;;;;;;;43.25;19.60;;;;;;;;;;6383138;22;20018;-77
2023/04/24 00:31:41;;;;;;;68.53;30.38;;;;;;;;;;6359703;22;20436;-77
2023/04/24 00:34:26;;;;;;;59.58;26.02;;;;;;;;;;6383014;22;20018;-77
2023/04/24 00:37:11;;;;;;;43.45;20.52;;;;;;;;;;6359599;22;20352;-76
2023/04/24 00:39:57;;;;;;;41.63;19.20;;;;;;;;;;6383116;22;20351;-77
2023/04/24 00:42:43;;;;;;;34.17;17.67;;;;;;;;;;6383440;22;20018;-77
2023/04/24 00:45:31;;;;;;;28.08;14.30;;;;;;;;;;6383261;22;20018;-77
2023/04/24 00:48:16;;;;;;;23.80;12.20;;;;;;;;;;6383099;22;20018;-76
2023/04/24 00:51:02;;;;;;;21.20;11.35;;;;;;;;;;6359583;22;20018;-77
2023/04/24 00:53:47;;;;;;;18.10;11.18;;;;;;;;;;6383287;22;20014;-77
2023/04/24 00:56:33;;;;;;;17.00;10.70;;;;;;;;;;6383396;22;20363;-78
2023/04/24 00:59:18;;;;;;;17.23;10.60;;;;;;;;;;6383045;22;20432;-77
2023/04/24 01:02:04;;;;;;;18.48;10.73;;;;;;;;;;6382880;22;20014;-78
2023/04/24 01:04:50;;;;;;;18.40;11.38;;;;;;;;;;6359448;22;20420;-77
2023/04/24 01:07:37;;;;;;;19.90;11.77;;;;;;;;;;6359573;22;20023;-77
2023/04/24 01:10:23;;;;;;;21.15;11.55;;;;;;;;;;6382782;22;20014;-77
2023/04/24 01:13:08;;;;;;;19.25;11.32;;;;;;;;;;6382748;22;20018;-78
2023/04/24 01:15:53;;;;;;;18.35;10.70;;;;;;;;;;6383066;22;20339;-78
2023/04/24 01:18:38;;;;;;;14.98;9.93;;;;;;;;;;6382770;22;20015;-78
2023/04/24 01:21:27;;;;;;;17.92;10.23;;;;;;;;;;6359261;22;20335;-77
2023/04/24 01:24:13;;;;;;;19.75;10.32;;;;;;;;;;6359082;22;20018;-77
2023/04/24 01:26:58;;;;;;;18.98;10.95;;;;;;;;;;6382503;22;20014;-77
2023/04/24 01:29:44;;;;;;;18.98;10.90;;;;;;;;;;6382657;22;20018;-77
2023/04/24 01:32:29;;;;;;;21.75;12.05;;;;;;;;;;6358870;22;20018;-77
2023/04/24 01:35:15;;;;;;;18.92;11.30;;;;;;;;;;6382412;22;20014;-77
2023/04/24 01:38:01;;;;;;;19.23;11.60;;;;;;;;;;6358999;22;20019;-77
2023/04/24 01:40:46;;;;;;;21.10;12.93;;;;;;;;;;6382420;22;20331;-79
2023/04/24 01:43:32;;;;;;;17.70;11.25;;;;;;;;;;6382960;22;20022;-78
2023/04/24 01:46:17;;;;;;;22.70;11.95;;;;;;;;;;6382709;22;20018;-79
2023/04/24 01:49:06;;;;;;;23.55;11.50;;;;;;;;;;6382516;22;20022;-79
2023/04/24 01:51:51;;;;;;;23.10;11.95;;;;;;;;;;6358929;22;20018;-78
2023/04/24 01:54:37;;;;;;;18.67;10.80;;;;;;;;;;6359056;22;20019;-79
2023/04/24 01:57:23;;;;;;;21.42;12.10;;;;;;;;;;6359064;22;20102;-78
2023/04/24 02:00:11;;;;;;;22.52;11.20;;;;;;;;;;6382265;22;20436;-78
2023/04/24 02:02:59;;;;;;;23.27;11.30;;;;;;;;;;6382343;22;20018;-78
2023/04/24 02:05:45;;;;;;;18.60;11.00;;;;;;;;;;6358668;22;20018;-79
2023/04/24 02:08:31;;;;;;;18.90;10.10;;;;;;;;;;6382230;22;20436;-79
2023/04/24 02:11:17;;;;;;;15.50;10.50;;;;;;;;;;6358598;22;20018;-78
2023/04/24 02:14:02;;;;;;;16.20;10.43;;;;;;;;;;6358965;22;20011;-78
2023/04/24 02:16:48;;;;;;;17.17;10.32;;;;;;;;;;6382078;22;20018;-78
2023/04/24 02:19:33;;;;;;;25.00;12.27;;;;;;;;;;6381997;22;20022;-78
2023/04/24 02:22:19;;;;;;;26.77;13.52;;;;;;;;;;6358697;22;20014;-78
2023/04/24 02:25:05;;;;;;;23.17;13.73;;;;;;;;;;6358995;22;20014;-78
2023/04/24 02:27:50;;;;;;;29.85;14.60;;;;;;;;;;6358731;22;20019;-78
2023/04/24 02:30:35;;;;;;;24.75;12.80;;;;;;;;;;6358518;22;20018;-78
2023/04/24 02:33:20;;;;;;;23.33;12.48;;;;;;;;;;6382093;22;20014;-78
2023/04/24 02:36:06;;;;;;;21.63;12.18;;;;;;;;;;6382347;22;20018;-79
2023/04/24 02:38:51;;;;;;;22.63;12.52;;;;;;;;;;6358393;22;20014;-78
2023/04/24 02:41:36;;;;;;;19.45;11.43;;;;;;;;;;6382209;22;20015;-78
2023/04/24 02:44:28;;;;;;;20.52;12.65;;;;;;;;;;6382199;22;20018;-77
2023/04/24 02:47:16;;;;;;;18.27;11.88;;;;;;;;;;6381639;22;20014;-78
2023/04/24 02:50:03;;;;;;;23.75;13.02;;;;;;;;;;6358698;22;20018;-78
2023/04/24 02:52:49;;;;;;;20.00;12.50;;;;;;;;;;6337004;22;20018;-78
2023/04/24 02:55:35;;;;;;;23.33;12.98;;;;;;;;;;6358378;22;20014;-79
2023/04/24 02:58:20;;;;;;;16.38;10.20;;;;;;;;;;6358175;22;20014;-79
2023/04/24 03:01:06;;;;;;;15.35;8.60;;;;;;;;;;6336587;22;20010;-78
2023/04/24 03:03:51;;;;;;;23.15;11.85;;;;;;;;;;6358520;22;20015;-79
2023/04/24 03:06:38;;;;;;;9.75;5.30;;;;;;;;;;6358224;22;20432;-77
2023/04/24 03:09:24;;;;;;;22.38;10.25;;;;;;;;;;6358362;22;20014;-78
2023/04/24 03:12:09;;;;;;;25.73;14.15;;;;;;;;;;6358242;22;20015;-78
2023/04/24 03:14:55;;;;;;;23.23;11.60;;;;;;;;;;6381746;22;20018;-78
2023/04/24 03:17:40;;;;;;;20.55;12.27;;;;;;;;;;6381450;22;20343;-77
2023/04/24 03:20:26;;;;;;;29.30;14.25;;;;;;;;;;6381428;22;20018;-77
2023/04/24 03:23:14;;;;;;;30.80;13.50;;;;;;;;;;6358075;22;20022;-77
2023/04/24 03:25:59;;;;;;;22.05;12.45;;;;;;;;;;6357867;22;20018;-77
2023/04/24 03:28:45;;;;;;;52.63;16.63;;;;;;;;;;6358052;22;20018;-77
2023/04/24 03:31:30;;;;;;;28.45;13.02;;;;;;;;;;6378412;22;20022;-76
2023/04/24 03:34:16;;;;;;;29.05;13.40;;;;;;;;;;6357787;22;20014;-77
2023/04/24 03:37:02;;;;;;;35.63;14.63;;;;;;;;;;6357600;22;20018;-78
2023/04/24 03:39:48;;;;;;;23.15;12.38;;;;;;;;;;6357774;22;20018;-78
2023/04/24 03:42:35;;;;;;;22.70;11.98;;;;;;;;;;6357993;22;20451;-77
2023/04/24 03:45:20;;;;;;;24.70;13.02;;;;;;;;;;6357761;22;20014;-77
2023/04/24 03:48:09;;;;;;;27.00;12.48;;;;;;;;;;6358242;22;20015;-78
2023/04/24 03:50:56;;;;;;;18.30;10.55;;;;;;;;;;6357933;22;20018;-77
2023/04/24 03:53:42;;;;;;;18.30;10.93;;;;;;;;;;6357951;22;20332;-77
2023/04/24 03:56:29;;;;;;;18.17;10.77;;;;;;;;;;6357737;22;20015;-77
2023/04/24 03:59:15;;;;;;;22.38;11.85;;;;;;;;;;6358169;22;20018;-78
2023/04/24 04:02:04;;;;;;;19.98;12.35;;;;;;;;;;6357651;22;20022;-78
2023/04/24 04:04:50;;;;;;;20.48;12.88;;;;;;;;;;6357760;22;20014;-77
2023/04/24 04:07:36;;;;;;;22.10;11.98;;;;;;;;;;6357790;22;20015;-77
2023/04/24 04:10:21;;;;;;;30.88;15.40;;;;;;;;;;6357654;22;20022;-77
2023/04/24 04:13:07;;;;;;;25.17;14.80;;;;;;;;;;6380963;22;20018;-78
2023/04/24 04:15:53;;;;;;;21.27;13.07;;;;;;;;;;6357663;22;20019;-78
2023/04/24 04:18:39;;;;;;;27.80;13.23;;;;;;;;;;6357600;22;20010;-77
2023/04/24 04:21:26;;;;;;;25.17;13.38;;;;;;;;;;6357934;22;20014;-77
2023/04/24 04:24:22;;;;;;;;;;;;;;;;;;6358389;22;20011;-77
2023/04/24 04:27:08;;;;;;;23.90;12.13;;;;;;;;;;6357499;22;19910;-77
2023/04/24 04:30:20;;;;;;;21.92;12.68;;;;;;;;;;6358031;22;20363;-77
2023/04/24 04:33:14;;;;;;;28.92;14.60;;;;;;;;;;6357155;22;20018;-77
2023/04/24 04:36:01;;;;;;;33.08;17.75;;;;;;;;;;6357719;22;20015;-78
2023/04/24 04:38:48;;;;;;;29.50;17.15;;;;;;;;;;6357931;22;20011;-78
2023/04/24 04:41:48;;;;;;;37.88;17.35;;;;;;;;;;6357624;22;20018;-78
2023/04/24 04:44:36;;;;;;;37.30;17.33;;;;;;;;;;6358246;22;20014;-78
2023/04/24 04:47:26;;;;;;;32.92;16.77;;;;;;;;;;6357332;22;20019;-78
2023/04/24 04:50:13;;;;;;;38.33;16.30;;;;;;;;;;6359121;22;20343;-77
2023/04/24 04:53:05;;;;;;;28.00;15.98;;;;;;;;;;6382900;22;20073;-78
2023/04/24 04:55:54;;;;;;;31.80;16.00;;;;;;;;;;6360187;22;20018;-78
2023/04/24 04:58:45;;;;;;;35.42;17.73;;;;;;;;;;6359547;22;20014;-77
2023/04/24 05:01:34;;;;;;;36.53;18.02;;;;;;;;;;6359338;22;20451;-77
2023/04/24 05:04:20;;;;;;;42.13;18.35;;;;;;;;;;6358736;22;20010;-78
2023/04/24 05:07:07;;;;;;;33.85;18.38;;;;;;;;;;6359295;22;20022;-77
2023/04/24 05:09:56;;;;;;;44.17;20.48;;;;;;;;;;6359141;22;20374;-77
2023/04/24 05:12:47;;;;;;;40.00;18.13;;;;;;;;;;6360169;22;20439;-77
2023/04/24 05:15:33;;;;;;;35.90;15.43;;;;;;;;;;6382292;22;20022;-79
2023/04/24 05:18:19;;;;;;;32.47;16.55;;;;;;;;;;6359126;22;20069;-79
2023/04/24 05:21:05;;;;;;;34.45;16.58;;;;;;;;;;6359000;22;20014;-78
2023/04/24 05:23:51;;;;;;;28.98;12.55;;;;;;;;;;6337441;22;20344;-80
2023/04/24 05:26:58;;;;;;;26.52;14.55;;;;;;;;;;6382302;22;20018;-78
2023/04/24 05:29:50;;;;;;;20.30;10.38;;;;;;;;;;6359328;22;20018;-78
2023/04/24 05:32:35;;;;;;;20.05;10.73;;;;;;;;;;6336535;22;20019;-79
2023/04/24 05:35:21;;;;;;;15.63;9.32;;;;;;;;;;6327462;22;20022;-79
2023/04/24 05:38:12;;;;;;;16.73;8.02;;;;;;;;;;6328480;22;20023;-79
2023/04/24 05:40:58;;;;;;;13.57;8.85;;;;;;;;;;6327311;22;20015;-79
2023/04/24 05:43:45;;;;;;;28.88;14.98;;;;;;;;;;6350436;22;20019;-79
2023/04/24 05:46:30;;;;;;;17.70;11.05;;;;;;;;;;6327064;22;20340;-79
2023/04/24 05:49:17;;;;;;;15.80;7.55;;;;;;;;;;6327536;22;20019;-78
2023/04/24 05:52:06;;;;;;;15.07;8.48;;;;;;;;;;6350524;22;20011;-78
2023/04/24 05:54:52;;;;;;;24.58;14.98;;;;;;;;;;6305664;22;20018;-79
2023/04/24 05:57:41;;;;;;;29.33;14.77;;;;;;;;;;6327245;22;20019;-79
2023/04/24 06:00:29;;;;;;;25.75;14.45;;;;;;;;;;6327361;22;20015;-78
2023/04/24 06:03:22;;;;;;;30.50;14.45;;;;;;;;;;6327418;22;20015;-78
2023/04/24 06:06:08;;;;;;;25.63;12.52;;;;;;;;;;6327591;22;20014;-78
2023/04/24 06:08:53;;;;;;;16.40;10.02;;;;;;;;;;6327248;22;20023;-78
2023/04/24 06:11:44;;;;;;;25.40;11.60;;;;;;;;;;6328417;22;20022;-79
2023/04/24 06:14:35;;;;;;;26.23;13.80;;;;;;;;;;6328184;22;20352;-78
2023/04/24 06:17:41;;;;;;;11.23;6.85;;;;;;;;;;6350044;22;20348;-78
2023/04/24 06:20:30;;;;;;;13.65;7.88;;;;;;;;;;6327848;22;20345;-79
2023/04/24 06:23:16;;;;;;;11.02;7.40;;;;;;;;;;6327399;22;20018;-79
2023/04/24 06:26:01;;;;;;;18.08;7.18;;;;;;;;;;6327303;22;20019;-79
2023/04/24 06:28:49;;;;;;;12.00;7.45;;;;;;;;;;6350286;22;20018;-78
2023/04/24 06:31:36;;;;;;;11.77;6.97;;;;;;;;;;6345281;22;20023;-79
2023/04/24 06:34:23;;;;;;;12.70;6.78;;;;;;;;;;6357921;22;20019;-79
2023/04/24 06:37:09;;;;;;;9.02;5.88;;;;;;;;;;6358248;22;20018;-79
2023/04/24 06:39:54;;;;;;;8.85;5.28;;;;;;;;;;6380708;22;20023;-78
2023/04/24 06:42:40;;;;;;;11.27;4.45;;;;;;;;;;6381998;22;20014;-79
2023/04/24 06:45:27;;;;;;;7.95;4.03;;;;;;;;;;6358546;22;20018;-79
2023/04/24 06:48:13;;;;;;;6.75;4.07;;;;;;;;;;6382474;22;20019;-79
2023/04/24 06:51:01;;;;;;;4.90;3.88;;;;;;;;;;6381827;22;20443;-79
2023/04/24 06:53:51;;;;;;;9.13;4.40;;;;;;;;;;6381679;22;20015;-79
2023/04/24 06:56:42;;;;;;;9.02;4.35;;;;;;;;;;6381779;22;20014;-79
2023/04/24 06:59:28;;;;;;;7.60;4.10;;;;;;;;;;6381562;22;20014;-79
2023/04/24 07:02:14;;;;;;;8.65;4.45;;;;;;;;;;6381761;22;20015;-79
2023/04/24 07:05:04;;;;;;;7.78;3.92;;;;;;;;;;6381481;22;20011;-80
2023/04/24 07:07:51;;;;;;;8.10;3.65;;;;;;;;;;6382049;22;20014;-79
2023/04/24 07:10:42;;;;;;;6.05;3.45;;;;;;;;;;6381444;22;20018;-80
2023/04/24 07:13:28;;;;;;;5.10;3.53;;;;;;;;;;6381950;22;20038;-79
2023/04/24 07:16:16;;;;;;;5.07;3.30;;;;;;;;;;6381560;22;20018;-79
2023/04/24 07:19:01;;;;;;;8.15;3.50;;;;;;;;;;6382014;22;20436;-79
2023/04/24 07:21:53;;;;;;;5.22;3.17;;;;;;;;;;6381716;22;20022;-79
2023/04/24 07:24:40;;;;;;;5.45;3.50;;;;;;;;;;6381866;22;20018;-79
2023/04/24 07:27:31;;;;;;;6.93;3.72;;;;;;;;;;6381428;22;20340;-79
2023/04/24 07:30:22;;;;;;;5.93;3.63;;;;;;;;;;6381643;22;20014;-79
2023/04/24 07:33:08;;;;;;;7.82;3.38;;;;;;;;;;6371430;22;20332;-79
2023/04/24 07:35:55;;;;;;;7.43;3.67;;;;;;;;;;6381160;22;20436;-79
2023/04/24 07:38:41;;;;;;;4.88;3.58;;;;;;;;;;6381184;22;20018;-77
2023/04/24 07:41:27;;;;;;;8.65;3.80;;;;;;;;;;6381567;22;20440;-78
2023/04/24 07:44:12;;;;;;;6.15;3.63;;;;;;;;;;6381264;22;20014;-79
2023/04/24 07:47:03;;;;;;;5.95;3.33;;;;;;;;;;6381166;22;20018;-79
2023/04/24 07:49:52;;;;;;;6.97;3.85;;;;;;;;;;6381331;22;20022;-79
2023/04/24 07:52:37;;;;;;;7.60;3.78;;;;;;;;;;6381543;22;20018;-79
2023/04/24 07:55:23;;;;;;;6.32;3.90;;;;;;;;;;6380999;22;20014;-79
2023/04/24 07:58:09;;;;;;;7.32;3.80;;;;;;;;;;6381646;22;20336;-78
2023/04/24 08:00:54;;;;;;;5.28;3.35;;;;;;;;;;6381648;22;20014;-79
2023/04/24 08:03:39;;;;;;;5.45;3.70;;;;;;;;;;6381283;22;20019;-79
2023/04/24 08:06:27;;;;;;;9.77;3.88;;;;;;;;;;6381608;22;20339;-79
2023/04/24 08:09:18;;;;;;;8.23;4.05;;;;;;;;;;6380895;22;20018;-79
2023/04/24 08:12:08;;;;;;;11.95;4.22;;;;;;;;;;6381773;22;20015;-79
2023/04/24 08:14:54;;;;;;;7.10;3.90;;;;;;;;;;6381152;22;20019;-79
2023/04/24 08:17:40;;;;;;;5.78;3.92;;;;;;;;;;6381526;22;20022;-78
2023/04/24 08:20:26;;;;;;;6.25;3.70;;;;;;;;;;6381023;22;20015;-78
2023/04/24 08:23:12;;;;;;;8.93;4.13;;;;;;;;;;6381143;22;20018;-78
2023/04/24 08:26:03;;;;;;;6.13;3.80;;;;;;;;;;6383330;22;20018;-78
2023/04/24 08:28:48;;;;;;;7.97;4.00;;;;;;;;;;6383671;22;20014;-79
2023/04/24 08:31:33;;;;;;;5.38;3.55;;;;;;;;;;6380149;22;20022;-79
2023/04/24 08:34:19;;;;;;;7.30;3.92;;;;;;;;;;6383242;22;20428;-78
2023/04/24 08:37:10;;;;;;;6.78;3.80;;;;;;;;;;6382864;22;20018;-79
2023/04/24 08:40:10;;;;;;;6.25;3.83;;;;;;;;;;6383293;22;20336;-79
2023/04/24 08:43:01;;;;;;;9.50;3.55;;;;;;;;;;6383427;22;20019;-79
2023/04/24 08:45:46;;;;;;;4.70;3.33;;;;;;;;;;6383275;22;20018;-78
2023/04/24 08:48:32;;;;;;;8.27;3.90;;;;;;;;;;6383294;22;20018;-78
2023/04/24 08:51:26;;;;;;;4.63;3.50;;;;;;;;;;6383377;22;20439;-77
2023/04/24 08:54:18;;;;;;;7.07;3.83;;;;;;;;;;6384450;22;20019;-76
2023/04/24 08:57:11;;;;;;;6.97;3.65;;;;;;;;;;6387429;22;20014;-76
2023/04/24 08:59:58;;;;;;;7.60;3.58;;;;;;;;;;6383423;22;20014;-78
2023/04/24 09:02:45;;;;;;;8.35;3.42;;;;;;;;;;6377629;22;20014;-77
2023/04/24 09:05:37;;;;;;;8.55;3.53;;;;;;;;;;6383111;22;20014;-76
2023/04/24 09:08:25;;;;;;;11.48;3.30;;;;;;;;;;6383129;22;20014;-76
2023/04/24 09:11:16;;;;;;;13.30;8.13;;;;;;;;;;6383110;22;20347;-75
2023/04/24 09:14:01;;;;;;;8.18;3.47;;;;;;;;;;6382778;22;20014;-77
2023/04/24 09:16:52;;;;;;;10.73;3.58;;;;;;;;;;6382987;22;20018;-77
2023/04/24 09:19:42;;;;;;;31.63;4.13;;;;;;;;;;6384345;22;20022;-77
2023/04/24 09:22:31;;;;;;;11.18;3.90;;;;;;;;;;6382749;22;20022;-77
2023/04/24 09:25:22;;;;;;;10.75;3.58;;;;;;;;;;6382723;22;20014;-77
2023/04/24 09:28:12;;;;;;;18.38;3.90;;;;;;;;;;6382676;22;20011;-77
2023/04/24 09:31:10;;;;;;;7.55;3.10;;;;;;;;;;6359891;22;20018;-77
2023/04/24 09:34:08;;;;;;;5.88;3.38;;;;;;;;;;6382729;22;20014;-76
2023/04/24 09:36:54;;;;;;;14.77;3.42;;;;;;;;;;6381979;22;20018;-76
2023/04/24 09:39:45;;;;;;;12.98;3.40;;;;;;;;;;6382635;22;20026;-76
2023/04/24 09:42:31;;;;;;;11.10;3.20;;;;;;;;;;6383104;22;20015;-76
2023/04/24 09:45:17;;;;;;;6.32;3.40;;;;;;;;;;6382611;22;20332;-76
2023/04/24 09:48:04;;;;;;;6.63;3.30;;;;;;;;;;6382539;22;20018;-76
2023/04/24 09:50:52;;;;;;;52.90;8.57;;;;;;;;;;6382356;22;20018;-76
2023/04/24 09:53:39;;;;;;;10.35;3.20;;;;;;;;;;6382406;22;20011;-77
2023/04/24 09:56:28;;;;;;;12.90;4.28;;;;;;;;;;6358817;22;20014;-76
2023/04/24 09:59:19;;;;;;;7.43;3.13;;;;;;;;;;6382411;22;20018;-76
2023/04/24 10:02:17;;;;;;;7.07;3.60;;;;;;;;;;6383030;22;20018;-76
2023/04/24 10:05:02;;;;;;;8.10;3.78;;;;;;;;;;6382714;22;20018;-76
2023/04/24 10:07:57;;;;;;;12.60;3.20;;;;;;;;;;6382327;22;20018;-77
2023/04/24 10:10:47;;;;;;;41.30;8.85;;;;;;;;;;6382020;22;20018;-76
2023/04/24 10:13:34;;;;;;;7.60;3.72;;;;;;;;;;6382227;22;20018;-76
2023/04/24 10:16:26;;;;;;;11.70;3.30;;;;;;;;;;6382077;22;20018;-76
2023/04/24 10:19:15;;;;;;;7.70;3.25;;;;;;;;;;6382536;22;20015;-76
2023/04/24 10:22:05;;;;;;;8.40;3.50;;;;;;;;;;6382449;22;20015;-76
2023/04/24 10:24:52;;;;;;;12.40;4.00;;;;;;;;;;6382272;22;20090;-76
2023/04/24 10:27:39;;;;;;;5.82;3.50;;;;;;;;;;6382393;22;20431;-76
2023/04/24 10:30:23;;;;;;;13.35;3.40;;;;;;;;;;6382010;22;20312;-76
2023/04/24 10:33:14;;;;;;;9.63;3.30;;;;;;;;;;6371749;22;20014;-76
2023/04/24 10:36:00;;;;;;;8.13;3.40;;;;;;;;;;6382303;22;20018;-76
2023/04/24 10:38:46;;;;;;;6.32;3.33;;;;;;;;;;6382025;22;20026;-76
2023/04/24 10:41:32;;;;;;;10.57;4.50;;;;;;;;;;6382101;22;20015;-76
2023/04/24 10:44:22;;;;;;;11.07;3.55;;;;;;;;;;6382136;22;20014;-76
2023/04/24 10:47:14;;;;;;;11.70;3.90;;;;;;;;;;6381508;22;20019;-78
2023/04/24 10:50:09;;;;;;;10.02;4.35;;;;;;;;;;6382078;22;20018;-78
2023/04/24 10:53:08;;;;;;;7.10;3.60;;;;;;;;;;6381507;22;20018;-78
2023/04/24 10:56:04;;;;;;;7.75;3.15;;;;;;;;;;6383515;22;20018;-78
2023/04/24 10:58:52;;;;;;;8.73;3.38;;;;;;;;;;6382613;22;20018;-78
2023/04/24 11:01:38;;;;;;;9.80;3.88;;;;;;;;;;6382422;22;20014;-78
2023/04/24 11:04:31;;;;;;;9.98;3.53;;;;;;;;;;6382327;22;20022;-79
2023/04/24 11:07:21;;;;;;;5.32;3.10;;;;;;;;;;6383075;22;20019;-75
2023/04/24 11:10:07;;;;;;;6.82;3.88;;;;;;;;;;6382745;22;20010;-75
2023/04/24 11:12:53;;;;;;;7.72;3.70;;;;;;;;;;6382782;22;20010;-75
2023/04/24 11:16:20;;;;;;;13.93;3.85;;;;;;;;;;6381462;22;20014;-76
2023/04/24 11:19:14;;;;;;;8.10;3.03;;;;;;;;;;6359025;22;20022;-75
2023/04/24 11:22:14;;;;;;;6.70;3.38;;;;;;;;;;6382535;22;20014;-74
2023/04/24 11:25:02;;;;;;;5.10;2.97;;;;;;;;;;6371589;22;20340;-75
2023/04/24 11:27:49;;;;;;;6.40;3.08;;;;;;;;;;6357989;22;20010;-74
2023/04/24 11:30:39;;;;;;;5.20;2.97;;;;;;;;;;6376860;22;20022;-76
2023/04/24 11:33:31;;;;;;;5.13;3.47;;;;;;;;;;6380746;22;20022;-75
2023/04/24 11:36:19;;;;;;;6.55;3.60;;;;;;;;;;6369518;22;20014;-75
2023/04/24 11:39:11;;;;;;;10.10;4.88;;;;;;;;;;6381348;22;20018;-76
2023/04/24 11:42:06;;;;;;;6.35;3.25;;;;;;;;;;6381117;22;20436;-76
2023/04/24 11:44:53;;;;;;;5.85;3.53;;;;;;;;;;6381043;22;20014;-74
2023/04/24 11:47:40;;;;;;;4.80;2.70;;;;;;;;;;6380406;22;20010;-73
2023/04/24 11:50:32;;;;;;;8.70;5.50;;;;;;;;;;6381297;22;20014;-72
2023/04/24 11:53:22;;;;;;;5.85;2.65;;;;;;;;;;6358450;22;20022;-73
2023/04/24 11:56:18;;;;;;;9.43;4.55;;;;;;;;;;6380750;22;20015;-73
2023/04/24 11:59:08;;;;;;;7.35;3.83;;;;;;;;;;6380811;22;20018;-73
2023/04/24 12:01:59;;;;;;;6.40;3.80;;;;;;;;;;6381187;22;20014;-74
2023/04/24 12:04:49;;;;;;;5.97;3.95;;;;;;;;;;6380217;22;20014;-74
2023/04/24 12:07:42;;;;;;;3.75;2.50;;;;;;;;;;6380554;22;20386;-74
2023/04/24 12:10:30;;;;;;;5.50;3.33;;;;;;;;;;6380520;22;20014;-73
2023/04/24 12:13:18;;;;;;;4.35;2.10;;;;;;;;;;6380443;22;20435;-71
2023/04/24 12:16:08;;;;;;;5.22;2.88;;;;;;;;;;6381366;22;20019;-74
2023/04/24 12:18:58;;;;;;;8.13;4.57;;;;;;;;;;6383780;22;20332;-76
2023/04/24 12:22:07;;;;;;;9.05;5.00;;;;;;;;;;6381818;22;20018;-76
2023/04/24 12:25:05;;;;;;;59.75;7.78;;;;;;;;;;6381452;22;20022;-76
2023/04/24 12:28:11;;;;;;;8.70;6.40;;;;;;;;;;6357841;22;20015;-74
2023/04/24 12:31:00;;;;;;;18.83;9.18;;;;;;;;;;6381076;22;20018;-78
2023/04/24 12:33:50;;;;;;;38.05;8.30;;;;;;;;;;6381788;22;20018;-79
2023/04/24 12:36:47;;;;;;;6.85;5.32;;;;;;;;;;6381297;22;20014;-77
2023/04/24 12:39:32;;;;;;;6.68;4.60;;;;;;;;;;6359348;22;20014;-78
2023/04/24 12:42:27;;;;;;;10.13;5.05;;;;;;;;;;6381962;22;20019;-78
2023/04/24 12:45:13;;;;;;;;;;;;;;;;;;6382962;22;20018;-77
2023/04/24 12:47:59;;;;;;;11.57;5.07;;;;;;;;;;6380844;22;19910;-75
2023/04/24 12:50:44;;;;;;;18.20;10.40;;;;;;;;;;6381341;22;20034;-75
2023/04/24 12:53:35;;;;;;;1999.90;999.90;;;;;;;;;;6381670;22;20015;-76
2023/04/24 12:56:26;;;;;;;23.30;17.83;;;;;;;;;;6379732;22;20390;-78
2023/04/24 12:59:13;;;;;;;17.05;9.07;;;;;;;;;;6381676;22;20019;-77
2023/04/24 13:01:59;;;;;;;534.95;495.73;;;;;;;;;;6357047;22;20018;-75
2023/04/24 13:04:51;;;;;;;1999.90;999.90;;;;;;;;;;6380410;22;20018;-76
2023/04/24 13:07:37;;;;;;;1999.90;999.90;;;;;;;;;;6380463;22;20014;-75
2023/04/24 13:10:23;;;;;;;1420.80;978.03;;;;;;;;;;6381313;22;20018;-75
2023/04/24 13:13:14;;;;;;;26.58;21.60;;;;;;;;;;6360695;22;20015;-75
2023/04/24 13:15:58;;;;;;;25.95;23.13;;;;;;;;;;6381243;22;20343;-75
2023/04/24 13:18:44;;;;;;;103.32;52.95;;;;;;;;;;6382207;22;20018;-74
2023/04/24 13:21:31;;;;;;;207.80;147.60;;;;;;;;;;6358933;22;20018;-75
2023/04/24 13:24:17;;;;;;;200.50;181.00;;;;;;;;;;6382506;22;20018;-74
2023/04/24 13:27:02;;;;;;;181.82;169.52;;;;;;;;;;6372072;22;20014;-77
2023/04/24 13:29:48;;;;;;;158.15;147.00;;;;;;;;;;6382358;22;20019;-77
2023/04/24 13:32:38;;;;;;;152.18;141.30;;;;;;;;;;6375505;22;20014;-77
2023/04/24 13:35:29;;;;;;;116.20;107.90;;;;;;;;;;6382955;22;20019;-77
2023/04/24 13:38:15;;;;;;;149.80;139.77;;;;;;;;;;6382851;22;20010;-77
2023/04/24 13:41:01;;;;;;;178.57;159.32;;;;;;;;;;6385019;22;20015;-75
2023/04/24 13:43:47;;;;;;;59.35;43.92;;;;;;;;;;6383009;22;20325;-75
2023/04/24 13:46:32;;;;;;;71.30;49.10;;;;;;;;;;6383157;22;20343;-76
2023/04/24 13:49:19;;;;;;;13.88;8.23;;;;;;;;;;6382453;22;20018;-76
2023/04/24 13:52:10;;;;;;;1999.90;999.90;;;;;;;;;;6382507;22;20022;-76
2023/04/24 13:55:02;;;;;;;1999.90;999.90;;;;;;;;;;6382575;22;20018;-81
2023/04/24 13:57:49;;;;;;;1999.90;999.90;;;;;;;;;;6383670;22;20011;-80
2023/04/24 14:00:34;;;;;;;1999.90;999.90;;;;;;;;;;6382637;22;20015;-78
2023/04/24 14:03:19;;;;;;;1999.90;999.90;;;;;;;;;;6382079;22;20447;-77
2023/04/24 14:06:06;;;;;;;1999.90;999.90;;;;;;;;;;6382785;22;20014;-77
2023/04/24 14:08:57;;;;;;;1999.90;999.90;;;;;;;;;;6380577;22;20019;-77
2023/04/24 14:11:47;;;;;;;1999.90;999.90;;;;;;;;;;6382836;22;20010;-77
2023/04/24 14:14:34;;;;;;;1999.90;999.90;;;;;;;;;;6382421;22;20018;-78
2023/04/24 14:17:20;;;;;;;1999.90;999.90;;;;;;;;;;6382303;22;20018;-79
2023/04/24 14:20:06;;;;;;;1999.90;999.90;;;;;;;;;;6336918;22;20435;-76
2023/04/24 14:22:58;;;;;;;1999.90;999.90;;;;;;;;;;6382525;22;20018;-77
2023/04/24 14:25:45;;;;;;;1999.90;999.90;;;;;;;;;;6382895;22;20018;-77
2023/04/24 14:28:36;;;;;;;1999.90;999.90;;;;;;;;;;6381692;22;20023;-77
2023/04/24 14:31:21;;;;;;;1999.90;999.90;;;;;;;;;;6379883;22;20018;-77
2023/04/24 14:34:08;;;;;;;1999.90;999.90;;;;;;;;;;6381976;22;20019;-77
2023/04/24 14:36:58;;;;;;;1999.90;999.90;;;;;;;;;;6381612;22;20317;-76
2023/04/24 14:39:45;;;;;;;1999.90;999.90;;;;;;;;;;6381860;22;20018;-77
2023/04/24 14:42:35;;;;;;;1999.90;999.90;;;;;;;;;;6381762;22;20018;-76
2023/04/24 14:45:26;;;;;;;60.05;53.85;;;;;;;;;;6381383;22;20010;-77
2023/04/24 14:48:11;;;;;;;254.02;103.47;;;;;;;;;;6381490;22;20014;-78
2023/04/24 14:51:02;;;;;;;12.88;7.38;;;;;;;;;;6380672;22;20447;-77
2023/04/24 14:53:53;;;;;;;61.67;35.13;;;;;;;;;;6381843;22;20328;-77
2023/04/24 14:56:40;;;;;;;425.13;254.00;;;;;;;;;;6382275;22;20018;-77
2023/04/24 14:59:27;;;;;;;17.70;11.40;;;;;;;;;;6380732;22;20014;-76
2023/04/24 15:02:17;;;;;;;20.27;12.95;;;;;;;;;;6380780;22;20011;-76
2023/04/24 15:05:03;;;;;;;29.73;15.10;;;;;;;;;;6379539;22;20018;-77
2023/04/24 15:07:49;;;;;;;21.30;13.23;;;;;;;;;;6381104;22;20018;-76
2023/04/24 15:10:35;;;;;;;16.67;9.38;;;;;;;;;;6380602;22;20022;-77
2023/04/24 15:13:20;;;;;;;22.90;15.73;;;;;;;;;;6381467;22;20011;-77
2023/04/24 15:16:07;;;;;;;23.02;13.98;;;;;;;;;;6381404;22;20014;-78
2023/04/24 15:18:52;;;;;;;20.05;12.85;;;;;;;;;;6381449;22;20022;-77
2023/04/24 15:21:41;;;;;;;26.42;16.45;;;;;;;;;;6381281;22;20014;-77
2023/04/24 15:24:26;;;;;;;19.83;12.77;;;;;;;;;;6381642;22;20018;-77
2023/04/24 15:27:13;;;;;;;35.85;21.77;;;;;;;;;;6381697;22;20019;-77
2023/04/24 15:29:59;;;;;;;28.02;16.85;;;;;;;;;;6357236;22;20018;-77
2023/04/24 15:32:44;;;;;;;32.05;19.77;;;;;;;;;;6372394;22;20018;-77
2023/04/24 15:35:34;;;;;;;33.58;21.20;;;;;;;;;;6381337;22;20014;-76
2023/04/24 15:38:28;;;;;;;28.10;16.88;;;;;;;;;;6380681;22;20023;-78
2023/04/24 15:41:19;;;;;;;23.50;14.13;;;;;;;;;;6381097;22;20018;-78
2023/04/24 15:44:05;;;;;;;22.92;13.15;;;;;;;;;;6381120;22;20014;-77
2023/04/24 15:46:51;;;;;;;10.57;6.28;;;;;;;;;;6380569;22;20014;-77
2023/04/24 15:49:38;;;;;;;13.15;7.00;;;;;;;;;;6381763;22;20010;-77
2023/04/24 15:52:23;;;;;;;8.95;5.43;;;;;;;;;;6357885;22;20010;-77
2023/04/24 15:55:10;;;;;;;7.57;4.63;;;;;;;;;;6382611;22;20018;-77
2023/04/24 15:57:55;;;;;;;16.77;11.68;;;;;;;;;;6383211;22;20332;-77
2023/04/24 16:00:43;;;;;;;9.95;5.03;;;;;;;;;;6380780;22;20019;-78
2023/04/24 16:03:30;;;;;;;35.30;16.75;;;;;;;;;;6380993;22;20018;-78
2023/04/24 16:06:15;;;;;;;98.13;46.67;;;;;;;;;;6382089;22;20018;-78
2023/04/24 16:09:01;;;;;;;140.23;63.47;;;;;;;;;;6382571;22;20018;-78
2023/04/24 16:11:52;;;;;;;97.18;45.58;;;;;;;;;;6382507;22;20420;-77
2023/04/24 16:14:43;;;;;;;88.80;44.92;;;;;;;;;;6381112;22;20019;-77
2023/04/24 16:17:29;;;;;;;15.20;9.88;;;;;;;;;;6383038;22;20018;-77
2023/04/24 16:20:16;;;;;;;10.43;6.40;;;;;;;;;;6383038;22;20428;-77
2023/04/24 16:23:02;;;;;;;10.93;6.82;;;;;;;;;;6381857;22;20343;-77
2023/04/24 16:25:48;;;;;;;13.60;6.95;;;;;;;;;;6382241;22;20022;-77